Time;durP1;ratioP1;P1;durP2;ratioP2;P2;SDS_P1;SDS_P2;PMS_P1;PMS_P2;Temp;Humidity;BMP_temperature;BMP_pressure;BME280_temperature;BME280_humidity;BME280_pressure;Samples;Min_cycle;Max_cycle;Signal;HPM_P1;HPM_P2
2021/08/22 00:01:17;;;;;;;4.80;4.40;;;21.50;69.30;;;;;;5134038;27;20204;-60
2021/08/22 00:03:43;;;;;;;4.38;3.97;;;21.50;69.40;;;;;;5134525;27;20168;-61
2021/08/22 00:06:08;;;;;;;4.30;4.00;;;21.50;69.40;;;;;;5135123;27;20627;-60
2021/08/22 00:08:41;;;;;;;4.78;4.38;;;21.40;69.30;;;;;;5134125;27;20214;-62
2021/08/22 00:11:07;;;;;;;4.47;4.10;;;21.50;69.40;;;;;;5134752;27;20638;-61
2021/08/22 00:13:32;;;;;;;4.63;4.22;;;21.50;69.40;;;;;;5133741;27;20172;-61
2021/08/22 00:15:58;;;;;;;4.28;3.88;;;21.50;69.40;;;;;;5134592;27;20221;-61
2021/08/22 00:18:24;;;;;;;3.80;3.50;;;21.50;69.40;;;;;;5134377;27;20225;-60
2021/08/22 00:20:49;;;;;;;4.43;4.03;;;21.50;69.40;;;;;;5134046;27;20200;-60
2021/08/22 00:23:15;;;;;;;4.32;4.03;;;21.50;69.40;;;;;;5134340;27;20212;-60
2021/08/22 00:25:40;;;;;;;4.90;4.50;;;21.50;69.40;;;;;;5134285;27;20355;-60
2021/08/22 00:28:06;;;;;;;4.25;3.92;;;21.50;69.40;;;;;;5132192;27;20286;-61
2021/08/22 00:30:31;;;;;;;4.25;3.85;;;21.40;69.40;;;;;;5113716;28;20394;-61
2021/08/22 00:32:57;;;;;;;4.30;4.00;;;21.50;69.40;;;;;;5114193;28;20179;-61
2021/08/22 00:35:22;;;;;;;4.40;4.03;;;21.40;69.40;;;;;;5112723;28;20188;-61
2021/08/22 00:37:48;;;;;;;4.38;3.95;;;21.50;69.50;;;;;;5114182;28;20190;-61
2021/08/22 00:40:13;;;;;;;4.72;4.32;;;21.40;69.40;;;;;;5113885;28;20304;-61
2021/08/22 00:42:39;;;;;;;4.25;3.83;;;21.40;69.40;;;;;;5112688;28;20916;-61
2021/08/22 00:45:05;;;;;;;4.80;4.40;;;21.40;69.40;;;;;;5113494;28;20703;-61
2021/08/22 00:47:31;;;;;;;4.35;3.88;;;21.40;69.40;;;;;;5113105;28;20188;-61
2021/08/22 00:49:57;;;;;;;4.47;4.18;;;21.40;69.40;;;;;;5112861;28;20169;-62
2021/08/22 00:52:24;;;;;;;3.80;3.53;;;21.40;69.50;;;;;;5094212;28;20650;-61
2021/08/22 00:54:50;;;;;;;4.38;4.00;;;21.40;69.40;;;;;;5095191;28;20173;-61
2021/08/22 00:57:15;;;;;;;4.50;4.10;;;21.40;69.40;;;;;;5077669;28;20179;-61
2021/08/22 00:59:41;;;;;;;4.07;3.78;;;21.40;69.50;;;;;;5113101;28;20200;-60
2021/08/22 01:02:06;;;;;;;4.63;4.22;;;21.40;69.40;;;;;;5095047;28;20165;-60
2021/08/22 01:04:48;;;;;;;4.43;4.13;;;21.40;69.40;;;;;;5093876;28;20238;-61
2021/08/22 01:07:31;;;;;;;4.22;3.92;;;21.40;69.50;;;;;;5079541;28;20260;-61
2021/08/22 01:09:56;;;;;;;4.32;4.03;;;21.40;69.40;;;;;;5112269;28;20177;-61
2021/08/22 01:12:43;;;;;;;4.70;4.20;;;21.40;69.50;;;;;;5094178;28;20188;-61
2021/08/22 01:15:09;;;;;;;4.82;4.25;;;21.40;69.50;;;;;;5079086;28;20187;-61
2021/08/22 01:17:40;;;;;;;4.32;4.03;;;21.40;69.50;;;;;;5111665;28;20615;-61
2021/08/22 01:20:08;;;;;;;4.38;4.03;;;21.40;69.50;;;;;;5112754;28;20216;-60
2021/08/22 01:22:34;;;;;;;4.45;4.15;;;21.40;69.50;;;;;;5112649;28;20173;-61
2021/08/22 01:25:00;;;;;;;4.60;4.25;;;21.40;69.50;;;;;;5093654;28;20236;-60
2021/08/22 01:27:25;;;;;;;4.00;3.70;;;21.40;69.50;;;;;;5094382;28;20169;-61
2021/08/22 01:29:58;;;;;;;7.78;4.40;;;21.40;69.50;;;;;;5110364;27;20172;-61
2021/08/22 01:32:32;;;;;;;4.50;4.13;;;21.40;69.50;;;;;;5097692;27;20211;-61
2021/08/22 01:34:57;;;;;;;3.95;3.65;;;21.40;69.50;;;;;;5114748;27;20191;-61
2021/08/22 01:37:23;;;;;;;5.03;3.70;;;21.40;69.50;;;;;;5097411;27;20177;-61
2021/08/22 01:39:48;;;;;;;4.43;4.13;;;21.40;69.50;;;;;;5096928;27;20272;-61
2021/08/22 01:42:14;;;;;;;4.50;4.20;;;21.40;69.50;;;;;;5097939;27;20637;-61
2021/08/22 01:44:42;;;;;;;4.68;4.30;;;21.40;69.50;;;;;;5114456;27;20204;-61
2021/08/22 01:47:08;;;;;;;4.28;3.90;;;21.40;69.50;;;;;;5132302;27;20184;-61
2021/08/22 01:49:34;;;;;;;3.95;3.65;;;21.40;69.50;;;;;;5114094;27;20168;-61
2021/08/22 01:51:59;;;;;;;4.90;4.43;;;21.40;69.50;;;;;;5114110;27;20233;-61
2021/08/22 01:54:25;;;;;;;4.13;3.83;;;21.40;69.50;;;;;;5097246;27;20649;-62
2021/08/22 01:56:50;;;;;;;3.85;3.55;;;21.40;69.50;;;;;;5114462;27;20173;-61
2021/08/22 01:59:16;;;;;;;4.30;4.00;;;21.40;69.50;;;;;;5131937;27;20940;-61
2021/08/22 02:01:41;;;;;;;4.45;4.05;;;21.40;69.50;;;;;;5132323;27;20184;-61
2021/08/22 02:04:07;;;;;;;4.35;4.05;;;21.40;69.50;;;;;;5132624;27;20176;-61
2021/08/22 02:06:52;;;;;;;4.35;4.03;;;21.40;69.50;;;;;;5131847;27;20176;-61
2021/08/22 02:09:22;;;;;;;4.30;3.90;;;21.40;69.60;;;;;;5115960;28;20172;-61
2021/08/22 02:12:00;;;;;;;4.60;4.30;;;21.40;69.50;;;;;;5114372;28;20172;-61
2021/08/22 02:14:25;;;;;;;4.05;3.75;;;21.40;69.50;;;;;;5096685;28;20184;-61
2021/08/22 02:16:53;;;;;;;4.55;4.25;;;21.40;69.50;;;;;;5097291;28;20353;-61
2021/08/22 02:19:18;;;;;;;4.15;3.85;;;21.40;69.50;;;;;;5114328;28;20179;-60
2021/08/22 02:21:44;;;;;;;4.50;4.10;;;21.30;69.50;;;;;;5096405;28;20275;-61
2021/08/22 02:24:09;;;;;;;3.97;3.67;;;21.40;69.50;;;;;;5113866;28;20307;-61
2021/08/22 02:26:35;;;;;;;4.50;4.20;;;21.40;69.60;;;;;;5132221;28;20267;-60
2021/08/22 02:29:01;;;;;;;4.68;4.28;;;21.40;69.50;;;;;;5122459;28;20177;-61
2021/08/22 02:31:27;;;;;;;4.70;3.67;;;21.40;69.50;;;;;;5111459;28;20168;-61
2021/08/22 02:33:54;;;;;;;4.50;4.10;;;21.40;69.60;;;;;;5112097;28;20180;-61
2021/08/22 02:36:19;;;;;;;3.90;3.60;;;21.40;69.60;;;;;;5111165;28;20661;-61
2021/08/22 02:38:45;;;;;;;4.45;4.05;;;21.40;69.60;;;;;;5111908;28;20173;-60
2021/08/22 02:41:10;;;;;;;4.28;3.90;;;21.40;69.60;;;;;;5111234;28;20257;-61
2021/08/22 02:43:36;;;;;;;4.05;3.75;;;21.40;69.70;;;;;;5111217;28;20180;-61
2021/08/22 02:46:02;;;;;;;4.40;4.10;;;21.30;69.50;;;;;;5111734;28;20208;-61
2021/08/22 02:48:27;;;;;;;4.43;4.13;;;21.40;69.60;;;;;;5110603;28;20177;-61
2021/08/22 02:50:53;;;;;;;4.07;3.63;;;21.30;69.60;;;;;;5111729;28;20517;-61
2021/08/22 02:53:18;;;;;;;4.97;3.72;;;21.30;69.50;;;;;;5111753;28;20184;-61
2021/08/22 02:55:44;;;;;;;3.80;3.50;;;21.40;69.60;;;;;;5111019;28;20185;-61
2021/08/22 02:58:09;;;;;;;4.15;3.85;;;21.40;69.60;;;;;;5111929;28;20173;-61
2021/08/22 03:00:35;;;;;;;4.10;3.80;;;21.30;69.60;;;;;;5111386;28;20213;-61
2021/08/22 03:03:00;;;;;;;4.10;3.80;;;21.30;69.60;;;;;;5111073;28;20579;-60
2021/08/22 03:05:26;;;;;;;3.70;3.40;;;21.30;69.60;;;;;;5111171;28;20169;-61
2021/08/22 03:07:51;;;;;;;3.78;3.50;;;21.30;69.50;;;;;;5111553;28;20607;-61
2021/08/22 03:10:17;;;;;;;4.00;3.63;;;21.30;69.60;;;;;;5110730;28;20281;-61
2021/08/22 03:12:42;;;;;;;4.05;3.75;;;21.30;69.60;;;;;;5111169;28;20169;-60
2021/08/22 03:15:08;;;;;;;4.35;4.05;;;21.30;69.60;;;;;;5111656;28;20634;-61
2021/08/22 03:17:33;;;;;;;4.30;3.95;;;21.40;69.60;;;;;;5114228;28;20184;-61
2021/08/22 03:20:02;;;;;;;4.15;3.85;;;21.30;69.60;;;;;;5115216;28;20208;-60
2021/08/22 03:22:28;;;;;;;4.20;3.90;;;21.30;69.60;;;;;;5114952;28;20204;-60
2021/08/22 03:24:53;;;;;;;4.13;3.83;;;21.30;69.60;;;;;;5114205;28;20667;-60
2021/08/22 03:27:19;;;;;;;4.10;3.80;;;21.30;69.60;;;;;;5114929;28;20534;-60
2021/08/22 03:29:44;;;;;;;4.10;3.80;;;21.30;69.60;;;;;;5130319;27;20176;-61
2021/08/22 03:32:10;;;;;;;4.65;4.25;;;21.30;69.60;;;;;;5135008;27;20160;-61
2021/08/22 03:34:35;;;;;;;4.60;4.28;;;21.30;69.60;;;;;;5135164;27;20175;-61
2021/08/22 03:37:01;;;;;;;4.32;3.97;;;21.30;69.60;;;;;;5135589;27;20535;-61
2021/08/22 03:39:26;;;;;;;4.28;3.88;;;21.30;69.60;;;;;;5134302;27;20575;-61
2021/08/22 03:41:52;;;;;;;5.05;4.15;;;21.30;69.60;;;;;;5135306;27;20172;-61
2021/08/22 03:44:17;;;;;;;4.45;4.15;;;21.30;69.60;;;;;;5135109;27;20188;-60
2021/08/22 03:46:43;;;;;;;4.25;3.92;;;21.30;69.60;;;;;;5134055;27;20177;-60
2021/08/22 03:49:08;;;;;;;4.10;3.70;;;21.30;69.60;;;;;;5135118;27;20630;-62
2021/08/22 03:51:34;;;;;;;3.95;3.65;;;21.30;69.60;;;;;;5134226;27;20168;-62
2021/08/22 03:53:59;;;;;;;4.18;3.88;;;21.30;69.60;;;;;;5135018;27;20213;-61
2021/08/22 03:56:25;;;;;;;4.10;3.80;;;21.30;69.60;;;;;;5135027;27;20221;-62
2021/08/22 03:58:50;;;;;;;4.00;3.72;;;21.30;69.60;;;;;;5134225;27;20230;-63
2021/08/22 04:01:16;;;;;;;3.95;3.65;;;21.30;69.60;;;;;;5134730;27;20550;-62
2021/08/22 04:03:42;;;;;;;4.70;4.30;;;21.30;69.60;;;;;;5134751;27;20172;-63
2021/08/22 04:06:07;;;;;;;4.40;4.10;;;21.30;69.60;;;;;;5134350;27;20176;-62
2021/08/22 04:08:35;;;;;;;4.07;3.78;;;21.30;69.60;;;;;;5134646;27;20173;-62
2021/08/22 04:11:00;;;;;;;3.90;3.60;;;21.30;69.60;;;;;;5134961;27;20176;-62
2021/08/22 04:13:26;;;;;;;4.22;3.85;;;21.30;69.60;;;;;;5133673;27;20259;-62
2021/08/22 04:15:51;;;;;;;3.50;3.30;;;21.20;69.50;;;;;;5134903;27;20629;-62
2021/08/22 04:18:17;;;;;;;4.18;3.88;;;21.30;69.60;;;;;;5134760;27;20181;-61
2021/08/22 04:20:43;;;;;;;4.15;3.85;;;21.30;69.60;;;;;;5133670;27;20216;-62
2021/08/22 04:23:09;;;;;;;4.10;3.80;;;21.20;69.50;;;;;;5134449;27;20219;-61
2021/08/22 04:25:34;;;;;;;4.28;3.88;;;21.30;69.60;;;;;;5134307;27;20203;-61
2021/08/22 04:28:00;;;;;;;3.85;3.55;;;21.30;69.70;;;;;;5132107;27;20225;-62
2021/08/22 04:30:25;;;;;;;3.78;3.45;;;21.30;69.60;;;;;;5113497;28;20638;-62
2021/08/22 04:32:51;;;;;;;4.28;3.97;;;21.30;69.60;;;;;;5113924;28;20639;-62
2021/08/22 04:35:16;;;;;;;3.88;3.58;;;21.30;69.60;;;;;;5113189;28;20173;-63
2021/08/22 04:37:42;;;;;;;4.18;3.88;;;21.30;69.60;;;;;;5113425;28;20173;-62
2021/08/22 04:40:08;;;;;;;3.92;3.63;;;21.30;69.60;;;;;;5113757;28;20215;-62
2021/08/22 04:42:34;;;;;;;4.50;4.18;;;21.30;69.60;;;;;;5112668;28;20252;-62
2021/08/22 04:45:00;;;;;;;4.20;3.78;;;21.30;70.40;;;;;;5113489;28;20603;-62
2021/08/22 04:47:25;;;;;;;3.97;3.58;;;21.20;69.50;;;;;;5113579;28;20577;-62
2021/08/22 04:49:51;;;;;;;4.07;3.75;;;21.20;69.50;;;;;;5112593;28;20173;-62
2021/08/22 04:52:16;;;;;;;4.30;4.00;;;21.20;69.60;;;;;;5113443;28;20184;-62
2021/08/22 04:54:42;;;;;;;4.28;3.95;;;21.30;70.40;;;;;;5113090;28;20643;-62
2021/08/22 04:57:08;;;;;;;4.85;4.40;;;21.30;69.60;;;;;;5112464;28;20189;-62
2021/08/22 04:59:33;;;;;;;4.28;3.95;;;21.30;69.60;;;;;;5112897;28;20688;-62
2021/08/22 05:01:59;;;;;;;3.90;3.60;;;21.20;69.50;;;;;;5112653;28;20197;-62
2021/08/22 05:04:24;;;;;;;4.43;4.13;;;21.30;69.60;;;;;;5112973;28;20176;-62
2021/08/22 05:06:50;;;;;;;4.05;3.72;;;21.20;69.60;;;;;;5113373;28;20173;-62
2021/08/22 05:09:15;;;;;;;4.55;4.22;;;21.20;69.60;;;;;;5112491;28;20177;-62
2021/08/22 05:11:41;;;;;;;4.05;3.70;;;21.20;69.60;;;;;;5112716;28;20234;-62
2021/08/22 05:14:06;;;;;;;4.32;3.92;;;21.20;70.40;;;;;;5113004;28;20200;-62
2021/08/22 05:16:32;;;;;;;4.20;3.90;;;21.20;69.50;;;;;;5111945;28;20611;-62
2021/08/22 05:18:57;;;;;;;3.90;3.60;;;21.20;69.60;;;;;;5113039;28;20486;-62
2021/08/22 05:21:23;;;;;;;4.30;3.90;;;21.20;69.50;;;;;;5112465;28;20255;-62
2021/08/22 05:23:48;;;;;;;4.13;3.83;;;21.20;69.60;;;;;;5112078;28;20235;-61
2021/08/22 05:26:14;;;;;;;4.78;4.38;;;21.20;69.50;;;;;;5113224;28;20257;-61
2021/08/22 05:28:39;;;;;;;4.50;4.10;;;21.20;69.60;;;;;;5118406;27;20256;-62
2021/08/22 05:31:05;;;;;;;4.70;4.30;;;21.20;70.30;;;;;;5132711;27;20168;-62
2021/08/22 05:33:30;;;;;;;4.53;4.22;;;21.20;69.50;;;;;;5132995;27;20176;-63
2021/08/22 05:35:56;;;;;;;4.03;3.72;;;21.20;69.50;;;;;;5133223;27;20168;-62
2021/08/22 05:38:21;;;;;;;4.30;4.00;;;21.20;69.50;;;;;;5131596;27;20588;-63
2021/08/22 05:40:47;;;;;;;3.72;3.42;;;21.20;69.50;;;;;;5133078;27;20291;-62
2021/08/22 05:43:12;;;;;;;4.03;3.72;;;21.20;69.50;;;;;;5133093;27;20192;-62
2021/08/22 05:45:38;;;;;;;4.10;3.75;;;21.20;69.40;;;;;;5132193;27;20224;-63
2021/08/22 05:48:04;;;;;;;4.50;4.10;;;21.20;69.40;;;;;;5132702;27;20165;-62
2021/08/22 05:50:29;;;;;;;4.20;3.80;;;21.20;69.40;;;;;;5132526;27;20180;-62
2021/08/22 05:52:54;;;;;;;4.60;4.20;;;21.30;69.50;;;;;;5132089;27;20168;-62
2021/08/22 05:55:20;;;;;;;4.40;4.00;;;21.30;69.50;;;;;;5132346;27;20561;-62
2021/08/22 05:57:45;;;;;;;4.57;4.18;;;21.30;69.50;;;;;;5132679;27;20623;-62
2021/08/22 06:00:12;;;;;;;4.10;3.80;;;21.30;69.50;;;;;;5131845;27;20269;-61
2021/08/22 06:02:37;;;;;;;4.03;3.72;;;21.30;69.50;;;;;;5132388;27;20179;-62
2021/08/22 06:05:06;;;;;;;4.25;3.83;;;21.20;69.40;;;;;;5132672;27;20530;-62
2021/08/22 06:07:32;;;;;;;4.30;3.90;;;21.30;69.50;;;;;;5131762;27;20219;-62
2021/08/22 06:09:57;;;;;;;4.07;3.78;;;21.30;69.50;;;;;;5132570;27;20172;-62
2021/08/22 06:12:23;;;;;;;4.30;3.90;;;21.30;69.50;;;;;;5131848;27;20180;-61
2021/08/22 06:14:48;;;;;;;4.72;4.32;;;21.30;69.50;;;;;;5132769;27;20189;-61
2021/08/22 06:17:14;;;;;;;4.78;3.90;;;21.30;69.50;;;;;;5132692;28;20168;-61
2021/08/22 06:19:39;;;;;;;4.40;4.03;;;21.30;69.50;;;;;;5131522;28;21037;-61
2021/08/22 06:22:05;;;;;;;4.38;3.97;;;21.30;69.40;;;;;;5132762;28;20538;-60
2021/08/22 06:24:32;;;;;;;4.18;3.78;;;21.30;69.40;;;;;;5132198;28;20687;-60
2021/08/22 06:26:58;;;;;;;5.32;4.82;;;21.30;69.40;;;;;;5131906;28;20275;-61
2021/08/22 06:29:23;;;;;;;4.80;4.40;;;21.30;69.40;;;;;;5119916;28;20658;-61
2021/08/22 06:31:50;;;;;;;4.60;4.30;;;21.30;69.40;;;;;;5112145;28;20180;-60
2021/08/22 06:34:16;;;;;;;4.97;4.13;;;21.30;69.40;;;;;;5111472;28;20230;-60
2021/08/22 06:36:42;;;;;;;5.25;4.00;;;21.30;69.40;;;;;;5111853;28;20169;-60
2021/08/22 06:39:07;;;;;;;4.40;4.00;;;21.30;69.40;;;;;;5112538;28;20177;-60
2021/08/22 06:41:34;;;;;;;4.93;4.47;;;21.30;69.60;;;;;;5111287;28;20667;-62
2021/08/22 06:44:00;;;;;;;4.72;4.22;;;21.40;69.50;;;;;;5094228;28;20190;-60
2021/08/22 06:46:26;;;;;;;4.20;3.80;;;21.40;69.60;;;;;;5111941;28;20208;-60
2021/08/22 06:48:51;;;;;;;4.28;3.95;;;21.40;69.70;;;;;;5111438;28;20564;-60
2021/08/22 06:51:18;;;;;;;4.80;4.40;;;21.40;70.40;;;;;;5114460;28;20628;-60
2021/08/22 06:53:43;;;;;;;4.05;3.75;;;21.40;69.60;;;;;;5097590;28;20177;-60
2021/08/22 06:56:09;;;;;;;4.20;3.90;;;21.40;69.60;;;;;;5115483;28;20169;-60
2021/08/22 06:58:36;;;;;;;4.68;4.28;;;21.40;69.70;;;;;;5115714;28;20173;-61
2021/08/22 07:01:01;;;;;;;5.07;4.05;;;21.40;69.60;;;;;;5115949;28;20221;-60
2021/08/22 07:03:27;;;;;;;4.05;3.75;;;21.40;69.60;;;;;;5114816;28;20165;-61
2021/08/22 07:05:52;;;;;;;4.32;4.03;;;21.40;69.50;;;;;;5115708;28;20177;-61
2021/08/22 07:08:18;;;;;;;4.53;4.15;;;21.40;69.50;;;;;;5116000;28;20165;-61
2021/08/22 07:10:43;;;;;;;4.45;4.05;;;21.50;69.50;;;;;;5114694;28;20177;-61
2021/08/22 07:13:09;;;;;;;4.93;4.53;;;21.50;69.40;;;;;;5115947;28;20173;-60
2021/08/22 07:15:35;;;;;;;4.63;4.22;;;21.50;69.40;;;;;;5114578;28;20494;-61
2021/08/22 07:18:01;;;;;;;4.47;4.07;;;21.40;69.40;;;;;;5115755;28;20175;-60
2021/08/22 07:20:26;;;;;;;4.30;4.00;;;21.50;69.40;;;;;;5114761;28;20205;-60
2021/08/22 07:22:52;;;;;;;4.80;4.30;;;21.50;69.40;;;;;;5114546;28;20192;-60
2021/08/22 07:25:18;;;;;;;5.13;4.18;;;21.50;69.40;;;;;;5115375;28;20185;-60
2021/08/22 07:27:43;;;;;;;4.85;4.47;;;21.50;69.30;;;;;;5114957;28;20222;-60
2021/08/22 07:30:09;;;;;;;4.13;3.80;;;21.50;69.40;;;;;;5133313;27;20813;-60
2021/08/22 07:32:34;;;;;;;4.78;4.38;;;21.50;69.50;;;;;;5135582;27;20518;-60
2021/08/22 07:35:00;;;;;;;4.63;4.22;;;21.50;69.50;;;;;;5135741;27;20208;-59
2021/08/22 07:37:25;;;;;;;4.97;4.47;;;21.50;69.50;;;;;;5134486;27;20248;-59
2021/08/22 07:39:51;;;;;;;4.80;4.10;;;21.50;69.50;;;;;;5135127;27;20200;-61
2021/08/22 07:42:16;;;;;;;6.03;4.70;;;21.50;69.50;;;;;;5135713;27;20518;-59
2021/08/22 07:44:42;;;;;;;4.90;4.50;;;21.40;69.50;;;;;;5134419;27;20243;-59
2021/08/22 07:47:07;;;;;;;4.93;4.15;;;21.50;69.50;;;;;;5135452;27;20203;-60
2021/08/22 07:49:33;;;;;;;4.65;4.25;;;21.50;69.60;;;;;;5134994;27;20503;-59
2021/08/22 07:51:58;;;;;;;4.72;4.32;;;21.50;69.50;;;;;;5134694;27;20256;-60
2021/08/22 07:54:24;;;;;;;5.13;4.63;;;21.50;69.60;;;;;;5134982;27;20228;-60
2021/08/22 07:56:50;;;;;;;4.60;4.20;;;21.50;69.50;;;;;;5135737;27;20225;-59
2021/08/22 07:59:16;;;;;;;4.47;4.07;;;21.60;69.60;;;;;;5134840;27;20169;-60
2021/08/22 08:01:41;;;;;;;6.05;4.40;;;21.50;69.50;;;;;;5134657;27;20222;-60
2021/08/22 08:04:07;;;;;;;4.43;4.03;;;21.50;69.50;;;;;;5135134;27;20172;-60
2021/08/22 08:06:33;;;;;;;7.75;4.90;;;21.50;69.40;;;;;;5134174;27;20672;-60
2021/08/22 08:08:59;;;;;;;5.68;4.32;;;21.60;69.40;;;;;;5135354;27;20168;-61
2021/08/22 08:11:24;;;;;;;4.85;4.45;;;21.60;69.30;;;;;;5134831;27;20625;-60
2021/08/22 08:13:50;;;;;;;4.80;4.40;;;21.60;69.30;;;;;;5134307;27;20225;-59
2021/08/22 08:16:15;;;;;;;5.47;4.82;;;21.60;69.30;;;;;;5134702;27;20172;-59
2021/08/22 08:18:41;;;;;;;5.47;4.75;;;21.60;69.30;;;;;;5134532;27;20619;-59
2021/08/22 08:21:06;;;;;;;4.97;4.53;;;21.60;69.20;;;;;;5133954;27;20204;-59
2021/08/22 08:23:32;;;;;;;4.72;4.38;;;21.60;69.20;;;;;;5134050;27;20618;-60
2021/08/22 08:25:57;;;;;;;5.25;4.80;;;21.70;69.20;;;;;;5134251;27;20179;-59
2021/08/22 08:28:23;;;;;;;4.57;4.18;;;21.70;69.10;;;;;;5130556;27;20195;-59
2021/08/22 08:30:49;;;;;;;5.07;4.43;;;21.70;69.20;;;;;;5114085;28;20180;-60
2021/08/22 08:33:15;;;;;;;4.80;4.40;;;21.70;69.10;;;;;;5113365;28;20165;-60
2021/08/22 08:35:40;;;;;;;5.03;4.60;;;21.60;69.10;;;;;;5113548;28;20189;-59
2021/08/22 08:38:06;;;;;;;5.25;4.75;;;21.70;69.20;;;;;;5113854;28;20260;-60
2021/08/22 08:40:31;;;;;;;4.60;4.28;;;21.70;69.10;;;;;;5112575;28;20204;-60
2021/08/22 08:42:58;;;;;;;4.88;4.47;;;21.70;69.10;;;;;;5078656;28;20177;-61
2021/08/22 08:46:01;;;;;;;5.68;4.97;;;21.70;69.00;;;;;;5095128;28;20206;-61
2021/08/22 08:48:49;;;;;;;5.28;4.72;;;21.70;69.10;;;;;;5112730;28;20177;-60
2021/08/22 08:51:31;;;;;;;5.50;4.15;;;21.70;69.10;;;;;;5113666;28;20181;-59
2021/08/22 08:54:05;;;;;;;5.25;4.78;;;21.80;69.10;;;;;;5096927;28;20180;-60
2021/08/22 08:56:35;;;;;;;5.05;4.60;;;21.80;69.00;;;;;;5113373;28;20204;-60
2021/08/22 08:59:01;;;;;;;6.57;5.15;;;21.90;68.80;;;;;;5113651;28;20181;-60
2021/08/22 09:01:26;;;;;;;6.38;4.82;;;21.90;68.80;;;;;;5112445;28;20204;-60
2021/08/22 09:04:16;;;;;;;5.97;5.25;;;21.90;68.90;;;;;;5113159;28;20176;-59
2021/08/22 09:07:22;;;;;;;5.93;5.05;;;21.90;69.00;;;;;;5094733;28;20188;-60
2021/08/22 09:10:21;;;;;;;5.32;4.82;;;21.80;69.00;;;;;;5112517;28;20510;-60
2021/08/22 09:13:24;;;;;;;5.43;4.90;;;21.90;69.00;;;;;;5112949;28;20169;-59
2021/08/22 09:16:27;;;;;;;4.93;4.40;;;21.90;68.90;;;;;;5112384;28;20177;-60
2021/08/22 09:19:33;;;;;;;4.78;4.28;;;21.90;68.70;;;;;;5113143;28;20177;-60
2021/08/22 09:22:10;;;;;;;6.22;4.63;;;22.00;68.80;;;;;;5112943;28;20187;-60
2021/08/22 09:25:13;;;;;;;4.53;4.10;;;22.00;68.60;;;;;;5112386;28;20228;-60
2021/08/22 09:28:06;;;;;;;5.40;4.32;;;22.00;68.60;;;;;;5112599;28;20177;-61
2021/08/22 09:31:02;;;;;;;4.88;4.25;;;21.90;68.60;;;;;;5112083;28;20173;-61
2021/08/22 09:33:46;;;;;;;5.40;4.63;;;22.00;68.80;;;;;;5112592;28;20173;-60
2021/08/22 09:36:24;;;;;;;5.32;4.57;;;22.00;68.70;;;;;;5111806;28;20651;-60
2021/08/22 09:39:23;;;;;;;7.80;5.10;;;22.00;68.70;;;;;;5113165;28;20173;-60
2021/08/22 09:42:26;;;;;;;4.45;4.03;;;22.00;68.40;;;;;;5112902;28;20209;-59
2021/08/22 09:45:19;;;;;;;4.95;4.45;;;22.00;68.50;;;;;;5111697;28;20179;-60
2021/08/22 09:48:10;;;;;;;5.18;4.75;;;22.10;68.60;;;;;;5112552;28;20205;-60
2021/08/22 09:50:53;;;;;;;4.63;4.22;;;22.00;68.70;;;;;;5111702;28;20177;-60
2021/08/22 09:53:46;;;;;;;5.32;4.30;;;22.00;68.80;;;;;;5094645;28;20169;-59
2021/08/22 09:56:49;;;;;;;5.53;5.03;;;22.00;68.80;;;;;;5112594;28;20196;-60
2021/08/22 09:59:33;;;;;;;5.25;4.35;;;22.00;68.80;;;;;;5114792;27;20180;-59
2021/08/22 10:02:19;;;;;;;6.03;4.38;;;22.00;68.90;;;;;;5121546;27;20220;-59
2021/08/22 10:05:09;;;;;;;5.60;4.40;;;22.00;68.90;;;;;;5122329;27;20635;-60
2021/08/22 10:08:04;;;;;;;5.38;4.38;;;22.10;68.90;;;;;;5122714;27;20176;-60
2021/08/22 10:10:33;;;;;;;4.78;4.28;;;22.00;68.80;;;;;;5104987;27;20221;-60
2021/08/22 10:12:59;;;;;;;4.10;3.80;;;22.00;68.80;;;;;;5097692;28;20188;-59
2021/08/22 10:15:24;;;;;;;5.63;5.13;;;22.10;68.90;;;;;;5111830;28;20172;-60
2021/08/22 10:17:50;;;;;;;4.85;4.30;;;22.10;68.80;;;;;;5094031;28;20180;-59
2021/08/22 10:20:16;;;;;;;4.80;4.40;;;22.10;68.90;;;;;;5111410;28;20227;-59
2021/08/22 10:22:42;;;;;;;4.43;4.03;;;22.00;68.80;;;;;;5112015;28;20235;-59
2021/08/22 10:25:13;;;;;;;5.35;4.47;;;22.00;68.80;;;;;;5114288;28;20585;-59
2021/08/22 10:27:45;;;;;;;5.03;4.63;;;22.00;68.80;;;;;;5115615;28;20165;-59
2021/08/22 10:30:23;;;;;;;5.20;4.72;;;22.10;68.80;;;;;;5135672;27;20213;-59
2021/08/22 10:32:58;;;;;;;4.82;4.32;;;22.10;68.70;;;;;;5136633;27;20259;-60
2021/08/22 10:35:24;;;;;;;5.75;4.50;;;22.10;68.60;;;;;;5136347;27;20202;-61
2021/08/22 10:37:50;;;;;;;4.60;4.20;;;22.20;68.40;;;;;;5136637;27;20248;-60
2021/08/22 10:40:21;;;;;;;4.70;4.30;;;22.10;68.40;;;;;;5100709;27;20212;-60
2021/08/22 10:42:47;;;;;;;4.57;4.18;;;22.10;68.50;;;;;;5136632;27;20238;-60
2021/08/22 10:45:44;;;;;;;4.90;4.50;;;22.20;68.60;;;;;;5136699;27;20184;-59
2021/08/22 10:48:22;;;;;;;4.85;4.32;;;22.20;68.50;;;;;;5135802;27;20176;-60
2021/08/22 10:50:56;;;;;;;5.47;4.00;;;22.20;68.40;;;;;;5136674;27;20168;-60
2021/08/22 10:53:31;;;;;;;4.82;4.43;;;22.20;68.30;;;;;;5136131;27;20233;-60
2021/08/22 10:55:58;;;;;;;4.38;3.97;;;22.30;68.60;;;;;;5136741;27;20172;-60
2021/08/22 10:58:58;;;;;;;4.65;4.22;;;22.30;68.10;;;;;;5136007;27;20194;-60
2021/08/22 11:01:27;;;;;;;4.47;4.07;;;22.30;68.10;;;;;;5135547;27;20204;-60
2021/08/22 11:04:13;;;;;;;4.82;4.43;;;22.30;68.20;;;;;;5136244;27;20172;-60
2021/08/22 11:07:02;;;;;;;6.30;4.90;;;22.30;68.20;;;;;;5136194;27;20288;-61
2021/08/22 11:09:43;;;;;;;6.50;4.45;;;22.40;68.30;;;;;;5135191;27;20173;-60
2021/08/22 11:12:22;;;;;;;5.28;4.20;;;22.40;68.30;;;;;;5135861;27;20169;-60
2021/08/22 11:14:47;;;;;;;6.97;4.70;;;22.40;68.10;;;;;;5135608;27;20165;-59
2021/08/22 11:17:13;;;;;;;6.18;4.53;;;22.50;68.00;;;;;;5135989;27;20172;-59
2021/08/22 11:19:39;;;;;;;5.05;4.30;;;22.50;67.80;;;;;;5135513;27;20169;-60
2021/08/22 11:22:20;;;;;;;4.65;4.25;;;22.60;67.70;;;;;;5135191;27;20286;-59
2021/08/22 11:24:52;;;;;;;4.68;4.30;;;22.60;67.70;;;;;;5135575;27;20220;-59
2021/08/22 11:27:22;;;;;;;4.07;3.67;;;22.60;67.60;;;;;;5135928;27;20176;-60
2021/08/22 11:29:57;;;;;;;6.68;4.03;;;22.50;67.70;;;;;;5119092;27;20615;-63
2021/08/22 11:32:23;;;;;;;5.30;4.57;;;22.50;68.00;;;;;;5115072;28;20180;-60
2021/08/22 11:34:49;;;;;;;6.07;5.15;;;22.50;68.10;;;;;;5115017;28;20169;-60
2021/08/22 11:37:18;;;;;;;5.05;4.65;;;22.50;68.10;;;;;;5095368;28;20181;-60
2021/08/22 11:39:44;;;;;;;4.68;4.28;;;22.40;68.20;;;;;;5096659;28;20184;-60
2021/08/22 11:42:09;;;;;;;5.43;4.30;;;22.40;68.30;;;;;;5115035;28;20637;-60
2021/08/22 11:44:35;;;;;;;4.60;4.20;;;22.40;68.40;;;;;;5114119;28;20162;-60
2021/08/22 11:47:01;;;;;;;6.95;4.40;;;22.40;68.30;;;;;;5114922;28;20177;-60
2021/08/22 11:49:26;;;;;;;5.65;5.00;;;22.30;68.30;;;;;;5114611;28;20188;-63
2021/08/22 11:51:53;;;;;;;6.20;4.88;;;22.30;68.50;;;;;;5095705;28;20179;-62
2021/08/22 11:54:19;;;;;;;5.22;4.50;;;22.40;68.50;;;;;;5114274;28;20181;-60
2021/08/22 11:56:45;;;;;;;8.50;4.63;;;22.60;68.10;;;;;;5094882;28;20187;-61
2021/08/22 11:59:29;;;;;;;6.35;4.65;;;22.80;67.80;;;;;;5095234;28;20192;-60
2021/08/22 12:02:16;;;;;;;8.55;5.50;;;22.90;67.50;;;;;;5114589;28;20293;-61
2021/08/22 12:04:42;;;;;;;13.25;5.50;;;23.00;67.40;;;;;;5112842;28;20177;-64
2021/08/22 12:07:07;;;;;;;11.52;5.13;;;23.00;67.30;;;;;;5114250;28;20169;-65
2021/08/22 12:09:37;;;;;;;13.63;5.20;;;23.00;67.20;;;;;;5112146;28;20169;-63
2021/08/22 12:12:17;;;;;;;9.60;5.13;;;23.10;67.20;;;;;;5111507;28;20195;-62
2021/08/22 12:14:43;;;;;;;10.93;5.28;;;22.90;67.20;;;;;;5113493;28;20177;-62
2021/08/22 12:17:11;;;;;;;10.20;5.22;;;22.90;67.40;;;;;;5112920;28;20165;-62
2021/08/22 12:19:36;;;;;;;10.57;5.25;;;22.90;67.60;;;;;;5095397;28;20177;-63
2021/08/22 12:22:08;;;;;;;7.65;5.18;;;22.80;67.60;;;;;;5112536;28;20640;-63
2021/08/22 12:24:34;;;;;;;12.73;5.82;;;22.90;67.30;;;;;;5113393;28;20717;-63
2021/08/22 12:27:00;;;;;;;8.50;5.60;;;23.00;67.30;;;;;;5112674;28;20207;-64
2021/08/22 12:29:26;;;;;;;10.65;5.70;;;23.00;67.10;;;;;;5113281;28;20335;-63
2021/08/22 12:31:52;;;;;;;6.80;5.18;;;23.10;67.10;;;;;;5112663;28;20266;-63
2021/08/22 12:34:19;;;;;;;6.43;5.40;;;23.00;67.10;;;;;;5110924;28;20521;-64
2021/08/22 12:36:46;;;;;;;6.13;5.53;;;23.00;67.20;;;;;;5113074;28;20169;-64
2021/08/22 12:39:12;;;;;;;7.00;4.93;;;23.00;67.10;;;;;;5111989;28;20180;-64
2021/08/22 12:41:48;;;;;;;7.00;5.50;;;23.00;67.30;;;;;;5112424;28;20209;-64
2021/08/22 12:44:17;;;;;;;7.53;5.57;;;22.90;67.40;;;;;;5113427;28;20200;-65
2021/08/22 12:46:45;;;;;;;6.68;5.03;;;22.80;67.50;;;;;;5112040;28;20268;-64
2021/08/22 12:49:10;;;;;;;6.75;5.40;;;22.90;67.50;;;;;;5112018;28;20173;-64
2021/08/22 12:51:37;;;;;;;8.30;5.38;;;22.90;67.60;;;;;;5112888;28;20563;-64
2021/08/22 12:54:02;;;;;;;6.53;5.93;;;22.80;67.50;;;;;;5112902;28;20334;-64
2021/08/22 12:56:28;;;;;;;7.95;5.13;;;22.80;67.70;;;;;;5112908;28;20295;-64